createdAt,value
2019-06-20T00:07:27.995Z,1.80
2019-06-20T00:22:28.197Z,2.40
2019-06-20T00:37:28.912Z,2.20
2019-06-20T00:52:29.113Z,2.50
2019-06-20T01:07:29.893Z,1.90
2019-06-20T01:22:29.937Z,2.60
2019-06-20T01:37:30.133Z,2.60
2019-06-20T01:52:30.283Z,3.10
2019-06-20T02:07:30.935Z,3.20
2019-06-20T02:22:31.118Z,3.70
2019-06-20T02:37:31.250Z,4.00
2019-06-20T02:52:31.470Z,3.90
2019-06-20T03:07:31.634Z,4.20
2019-06-20T03:22:31.747Z,4.90
2019-06-20T03:37:32.022Z,5.20
2019-06-20T03:52:32.222Z,5.90
2019-06-20T04:07:32.427Z,5.70
2019-06-20T04:22:32.473Z,6.90
2019-06-20T04:37:32.647Z,12.20
2019-06-20T04:52:32.798Z,8.70
2019-06-20T05:07:32.949Z,7.20
2019-06-20T05:22:33.098Z,5.20
2019-06-20T05:37:34.330Z,4.80
2019-06-20T05:52:35.080Z,4.60
2019-06-20T06:07:35.701Z,6.30
2019-06-20T06:22:35.924Z,4.70
2019-06-20T06:37:36.002Z,3.20
2019-06-20T06:52:36.244Z,4.40
2019-06-20T07:07:36.844Z,2.90
2019-06-20T07:22:36.919Z,3.70
2019-06-20T07:37:37.019Z,3.20
2019-06-20T07:52:37.269Z,4.10
2019-06-20T08:07:37.315Z,5.10
2019-06-20T08:22:37.572Z,4.50
2019-06-20T08:37:37.903Z,4.50
2019-06-20T08:52:37.985Z,4.20
2019-06-20T09:07:41.581Z,4.10
2019-06-20T09:22:42.376Z,4.30
2019-06-20T09:37:43.125Z,3.00
2019-06-20T09:52:43.131Z,2.10
2019-06-20T10:07:43.385Z,2.60
2019-06-20T10:22:44.073Z,5.00
2019-06-20T10:37:47.195Z,6.50
2019-06-20T10:52:50.076Z,1.60
2019-06-20T11:07:50.301Z,2.40
2019-06-20T11:22:51.019Z,2.60
2019-06-20T11:37:51.239Z,2.60
2019-06-20T11:52:51.423Z,2.10
2019-06-20T12:07:51.615Z,2.80
2019-06-20T12:22:52.934Z,3.10
2019-06-20T12:37:53.534Z,2.70
2019-06-20T12:52:53.764Z,3.20
2019-06-20T13:07:53.968Z,2.60
2019-06-20T13:22:54.189Z,2.80
2019-06-20T13:37:55.109Z,3.60
2019-06-20T13:52:55.315Z,5.50
2019-06-20T14:07:56.153Z,7.00
2019-06-20T14:22:56.727Z,2.90
2019-06-20T14:37:56.859Z,3.40
2019-06-20T14:52:57.029Z,24.80
2019-06-20T15:07:57.356Z,3.20
2019-06-20T15:22:57.345Z,2.30
2019-06-20T15:37:58.058Z,2.20
2019-06-20T15:52:58.821Z,2.30
2019-06-20T16:07:58.842Z,2.70
2019-06-20T16:22:59.010Z,1.90
2019-06-20T16:37:59.493Z,2.30
2019-06-20T16:53:01.204Z,2.80
2019-06-20T17:08:03.074Z,2.80
2019-06-20T17:23:03.503Z,3.30
2019-06-20T17:38:03.642Z,3.10
2019-06-20T17:53:03.882Z,4.00
2019-06-20T18:08:14.599Z,3.40
2019-06-20T18:23:09.195Z,3.80
2019-06-20T18:38:10.495Z,3.80
2019-06-20T18:53:10.407Z,4.90
2019-06-20T19:08:10.685Z,5.00
2019-06-20T19:23:17.906Z,5.30
2019-06-20T19:38:17.792Z,6.70
2019-06-20T19:53:17.916Z,8.40
2019-06-20T20:08:18.031Z,7.50
2019-06-20T20:23:18.151Z,7.90
2019-06-20T20:38:18.809Z,8.10
2019-06-20T20:53:20.580Z,8.30
2019-06-20T21:08:20.604Z,8.00
2019-06-20T21:23:20.814Z,9.00
2019-06-20T21:38:21.533Z,9.50
2019-06-20T21:53:21.773Z,9.90
2019-06-20T22:08:21.954Z,10.00
2019-06-20T22:23:22.148Z,12.00
2019-06-20T22:38:22.385Z,12.70
2019-06-20T22:53:22.566Z,13.90
2019-06-20T23:08:22.720Z,15.50
2019-06-20T23:23:23.329Z,15.60
2019-06-20T23:38:23.557Z,15.60
2019-06-20T23:53:25.121Z,14.30
